createdAt,value
2019-04-01T00:00:00.721Z,71.90
2019-04-01T00:02:23.934Z,72.10
2019-04-01T00:04:45.121Z,72.50
2019-04-01T00:07:07.540Z,72.70
2019-04-01T00:09:28.770Z,72.90
2019-04-01T00:11:51.955Z,72.80
2019-04-01T00:14:13.229Z,72.80
2019-04-01T00:16:34.736Z,72.90
2019-04-01T00:19:02.811Z,72.90
2019-04-01T00:21:19.029Z,73.20
2019-04-01T00:23:40.231Z,74.80
2019-04-01T00:26:01.452Z,74.90
2019-04-01T00:28:22.647Z,74.90
2019-04-01T00:30:43.934Z,75.30
2019-04-01T00:33:05.124Z,75.60
2019-04-01T00:35:26.313Z,75.50
2019-04-01T00:37:47.524Z,75.70
2019-04-01T00:40:08.804Z,75.80
2019-04-01T00:42:40.907Z,76.10
2019-04-01T00:45:08.644Z,75.90
2019-04-01T00:47:29.837Z,76.00
2019-04-01T00:49:51.029Z,75.90
2019-04-01T00:52:12.245Z,76.10
2019-04-01T00:54:33.529Z,76.40
2019-04-01T00:56:54.736Z,76.50
2019-04-01T00:59:15.921Z,76.30
2019-04-01T01:01:37.157Z,76.40
2019-04-01T01:03:58.351Z,76.60
2019-04-01T01:06:19.546Z,77.00
2019-04-01T01:08:40.740Z,76.90
2019-04-01T01:11:01.945Z,77.20
2019-04-01T01:13:23.265Z,77.20
2019-04-01T01:15:44.461Z,77.20
2019-04-01T01:18:05.654Z,77.60
2019-04-01T01:20:26.838Z,77.60
2019-04-01T01:22:48.046Z,77.80
2019-04-01T01:25:09.744Z,77.90
2019-04-01T01:27:32.137Z,77.90
2019-04-01T01:29:53.319Z,77.70
2019-04-01T01:32:14.523Z,77.70
2019-04-01T01:34:35.729Z,77.80
2019-04-01T01:36:56.929Z,78.10
2019-04-01T01:39:18.135Z,78.40
2019-04-01T01:41:39.317Z,78.60
2019-04-01T01:44:00.533Z,78.60
2019-04-01T01:46:21.740Z,78.60
2019-04-01T01:48:42.942Z,78.80
2019-04-01T01:51:05.233Z,78.90
2019-04-01T01:53:26.443Z,79.10
2019-04-01T01:55:47.642Z,79.10
2019-04-01T01:58:08.841Z,80.00
2019-04-01T02:00:30.524Z,79.20
2019-04-01T02:02:51.714Z,79.60
2019-04-01T02:05:12.993Z,79.50
2019-04-01T02:07:35.408Z,79.50
2019-04-01T02:09:56.615Z,79.60
2019-04-01T02:12:17.806Z,79.90
2019-04-01T02:14:39.017Z,80.30
2019-04-01T02:17:00.318Z,80.40
2019-04-01T02:19:21.513Z,80.40
2019-04-01T02:21:42.715Z,80.70
2019-04-01T02:24:03.903Z,80.90
2019-04-01T02:26:25.073Z,81.00
2019-04-01T02:28:46.278Z,81.00
2019-04-01T02:31:07.456Z,81.30
2019-04-01T02:33:28.760Z,81.30
2019-04-01T02:35:49.947Z,81.70
2019-04-01T02:38:11.153Z,81.60
2019-04-01T02:40:33.455Z,81.80
2019-04-01T02:42:54.659Z,81.90
2019-04-01T02:45:16.171Z,82.10
2019-04-01T02:47:37.554Z,82.30
2019-04-01T02:49:58.761Z,82.60
2019-04-01T02:52:20.034Z,82.60
2019-04-01T02:54:41.248Z,82.60
2019-04-01T02:57:02.535Z,82.80
2019-04-01T02:59:24.181Z,83.00
2019-04-01T03:01:45.390Z,83.20
2019-04-01T03:04:06.713Z,83.10
2019-04-01T03:06:27.996Z,83.50
2019-04-01T03:08:49.311Z,83.50
2019-04-01T03:11:11.261Z,83.70
2019-04-01T03:13:32.932Z,84.00
2019-04-01T03:15:54.639Z,84.00
2019-04-01T03:18:15.846Z,84.00
2019-04-01T03:20:37.141Z,84.00
2019-04-01T03:22:58.354Z,84.20
2019-04-01T03:25:19.592Z,84.50
2019-04-01T03:27:40.794Z,84.80
2019-04-01T03:30:03.335Z,84.80
2019-04-01T03:32:24.602Z,84.90
2019-04-01T03:34:46.055Z,85.00
2019-04-01T03:37:07.602Z,85.10
2019-04-01T03:39:28.792Z,85.40
2019-04-01T03:41:50.000Z,86.40
2019-04-01T03:44:11.199Z,85.80
2019-04-01T03:46:32.414Z,85.80
2019-04-01T03:48:53.594Z,85.80
2019-04-01T03:51:14.798Z,85.90
2019-04-01T03:53:36.008Z,86.20
2019-04-01T03:55:58.508Z,86.50
2019-04-01T03:58:19.715Z,86.80
2019-04-01T04:00:40.923Z,87.00
2019-04-01T04:03:02.207Z,87.10
2019-04-01T04:05:23.435Z,87.10
2019-04-01T04:07:44.717Z,87.30
2019-04-01T04:10:06.163Z,87.10
2019-04-01T04:12:27.429Z,87.50
2019-04-01T04:14:51.084Z,87.90
2019-04-01T04:17:11.803Z,88.00
2019-04-01T04:19:32.986Z,88.20
2019-04-01T04:21:54.242Z,88.30
2019-04-01T04:24:15.760Z,88.70
2019-04-01T04:26:36.978Z,88.80
2019-04-01T04:28:58.167Z,88.70
2019-04-01T04:31:19.366Z,88.90
2019-04-01T04:33:41.054Z,88.80
2019-04-01T04:36:02.412Z,89.10
2019-04-01T04:38:23.678Z,89.00
2019-04-01T04:40:44.883Z,89.10
2019-04-01T04:43:06.117Z,89.10
2019-04-01T04:45:27.364Z,89.50
2019-04-01T04:47:48.557Z,89.70
2019-04-01T04:50:09.949Z,89.70
2019-04-01T04:52:31.160Z,90.00
2019-04-01T04:54:52.449Z,90.00
2019-04-01T04:57:13.648Z,90.00
2019-04-01T04:59:34.828Z,90.30
2019-04-01T05:01:56.245Z,90.00
2019-04-01T05:04:17.461Z,90.00
2019-04-01T05:06:39.473Z,90.10
2019-04-01T05:09:00.691Z,90.00
2019-04-01T05:11:23.801Z,89.90
2019-04-01T05:13:44.997Z,89.80
2019-04-01T05:16:06.188Z,89.80
2019-04-01T05:18:27.448Z,90.00
2019-04-01T05:20:49.657Z,90.00
2019-04-01T05:23:11.364Z,90.00
2019-04-01T05:25:32.873Z,89.90
2019-04-01T05:27:56.318Z,89.50
2019-04-01T05:30:17.905Z,89.30
2019-04-01T05:32:39.718Z,89.30
2019-04-01T05:35:03.398Z,89.60
2019-04-01T05:37:24.609Z,89.30
2019-04-01T05:39:46.042Z,89.30
2019-04-01T05:42:07.239Z,89.10
2019-04-01T05:44:29.820Z,88.90
2019-04-01T05:46:51.009Z,88.80
2019-04-01T05:49:32.186Z,88.50
2019-04-01T05:51:55.882Z,87.50
2019-04-01T05:54:17.167Z,87.50
2019-04-01T05:56:38.399Z,87.10
2019-04-01T05:58:59.763Z,87.00
2019-04-01T06:01:24.868Z,87.00
2019-04-01T06:03:46.090Z,86.50
2019-04-01T06:06:07.474Z,86.70
2019-04-01T06:08:28.706Z,85.70
2019-04-01T06:10:53.327Z,85.60
2019-04-01T06:13:14.937Z,85.60
2019-04-01T06:15:36.822Z,84.80
2019-04-01T06:17:58.094Z,84.90
2019-04-01T06:20:19.276Z,84.80
2019-04-01T06:22:40.569Z,84.20
2019-04-01T06:25:02.267Z,83.40
2019-04-01T06:27:24.041Z,83.20
2019-04-01T06:29:45.912Z,82.90
2019-04-01T06:32:07.239Z,82.80
2019-04-01T06:34:28.725Z,82.60
2019-04-01T06:36:50.534Z,82.00
2019-04-01T06:39:11.878Z,81.90
2019-04-01T06:41:33.268Z,81.70
2019-04-01T06:43:54.626Z,81.40
2019-04-01T06:46:16.283Z,81.10
2019-04-01T06:48:37.681Z,80.50
2019-04-01T06:50:58.908Z,80.90
2019-04-01T06:53:20.219Z,80.50
2019-04-01T06:55:41.431Z,79.20
2019-04-01T06:58:02.715Z,78.60
2019-04-01T07:00:25.231Z,78.10
2019-04-01T07:02:46.666Z,78.20
2019-04-01T07:05:08.059Z,78.60
2019-04-01T07:07:29.275Z,78.20
2019-04-01T07:09:50.941Z,77.60
2019-04-01T07:12:12.306Z,77.80
2019-04-01T07:14:34.435Z,77.40
2019-04-01T07:17:03.976Z,77.30
2019-04-01T07:19:25.588Z,76.40
2019-04-01T07:21:46.877Z,75.90
2019-04-01T07:24:08.121Z,75.70
2019-04-01T07:26:29.419Z,75.60
2019-04-01T07:28:50.823Z,75.60
2019-04-01T07:31:12.345Z,74.00
2019-04-01T07:33:33.549Z,72.70
2019-04-01T07:35:54.745Z,73.70
2019-04-01T07:38:15.982Z,72.90
2019-04-01T07:40:39.317Z,72.70
2019-04-01T07:43:01.496Z,72.60
2019-04-01T07:45:22.745Z,72.00
2019-04-01T07:47:43.941Z,72.00
2019-04-01T07:50:05.449Z,72.00
2019-04-01T07:52:28.657Z,71.50
2019-04-01T07:54:49.960Z,71.50
2019-04-01T07:57:11.145Z,71.20
2019-04-01T07:59:32.337Z,71.20
2019-04-01T08:01:53.653Z,70.90
2019-04-01T08:04:18.685Z,71.20
2019-04-01T08:06:40.967Z,70.40
2019-04-01T08:09:04.985Z,70.60
2019-04-01T08:11:26.374Z,69.50
2019-04-01T08:13:47.671Z,69.30
2019-04-01T08:16:08.962Z,70.10
2019-04-01T08:18:33.706Z,70.60
2019-04-01T08:20:53.349Z,70.40
2019-04-01T08:23:14.538Z,69.90
2019-04-01T08:25:35.789Z,69.80
2019-04-01T08:27:56.980Z,69.80
2019-04-01T08:30:18.689Z,69.40
2019-04-01T08:32:40.399Z,69.40
2019-04-01T08:35:01.799Z,68.90
2019-04-01T08:37:23.094Z,69.30
2019-04-01T08:39:44.582Z,68.80
2019-04-01T08:42:05.953Z,69.20
2019-04-01T08:44:27.796Z,69.00
2019-04-01T08:46:49.289Z,69.30
2019-04-01T08:49:13.221Z,68.80
2019-04-01T08:51:34.973Z,70.00
2019-04-01T08:53:56.376Z,68.90
2019-04-01T08:56:19.643Z,68.50
2019-04-01T08:58:40.823Z,68.10
2019-04-01T09:01:02.791Z,68.10
2019-04-01T09:03:25.199Z,68.50
2019-04-01T09:08:12.176Z,68.70
2019-04-01T09:10:34.246Z,67.60
2019-04-01T09:12:55.626Z,67.40
2019-04-01T09:15:17.241Z,66.60
2019-04-01T09:17:40.298Z,66.70
2019-04-01T09:20:01.585Z,66.70
2019-04-01T09:22:22.870Z,66.70
2019-04-01T09:24:44.310Z,66.00
2019-04-01T09:27:05.602Z,66.40
2019-04-01T09:29:26.827Z,66.00
2019-04-01T09:31:48.181Z,65.90
2019-04-01T09:34:10.368Z,65.40
2019-04-01T09:36:31.749Z,65.00
2019-04-01T09:38:53.086Z,65.70
2019-04-01T09:41:15.477Z,65.60
2019-04-01T09:43:36.912Z,64.70
2019-04-01T09:45:58.205Z,64.20
2019-04-01T09:48:19.401Z,65.00
2019-04-01T09:50:40.640Z,64.50
2019-04-01T09:53:01.947Z,64.60
2019-04-01T09:55:23.186Z,64.10
2019-04-01T09:57:44.391Z,63.10
2019-04-01T10:00:09.340Z,63.90
2019-04-01T10:02:32.333Z,63.30
2019-04-01T10:04:53.741Z,62.50
2019-04-01T10:07:14.933Z,62.30
2019-04-01T10:09:36.337Z,62.60
2019-04-01T10:11:57.922Z,62.00
2019-04-01T10:14:19.118Z,61.10
2019-04-01T10:16:41.430Z,59.80
2019-04-01T10:19:02.840Z,61.30
2019-04-01T10:21:24.129Z,60.90
2019-04-01T10:23:45.321Z,60.60
2019-04-01T10:26:06.539Z,59.80
2019-04-01T10:28:27.747Z,59.10
2019-04-01T10:30:48.941Z,58.70
2019-04-01T10:33:12.478Z,59.80
2019-04-01T10:35:33.673Z,59.30
2019-04-01T10:37:55.953Z,58.90
2019-04-01T10:40:17.182Z,58.90
2019-04-01T10:42:38.474Z,59.00
2019-04-01T10:44:59.682Z,58.80
2019-04-01T10:47:20.907Z,59.20
2019-04-01T10:49:42.343Z,58.60
2019-04-01T10:52:03.827Z,58.30
2019-04-01T10:54:25.494Z,59.00
2019-04-01T10:56:46.807Z,58.00
2019-04-01T10:59:08.129Z,57.80
2019-04-01T11:01:29.482Z,58.30
2019-04-01T11:03:50.839Z,56.80
2019-04-01T11:06:12.336Z,57.50
2019-04-01T11:08:34.822Z,57.50
2019-04-01T11:10:56.089Z,57.40
2019-04-01T11:13:17.275Z,57.30
2019-04-01T11:15:38.478Z,57.00
2019-04-01T11:17:59.667Z,56.40
2019-04-01T11:20:20.873Z,56.10
2019-04-01T11:22:42.069Z,57.00
2019-04-01T11:25:05.577Z,56.60
2019-04-01T11:27:27.885Z,56.90
2019-04-01T11:29:49.064Z,56.50
2019-04-01T11:32:13.242Z,56.70
2019-04-01T11:34:33.412Z,55.80
2019-04-01T11:36:54.600Z,55.50
2019-04-01T11:39:15.883Z,55.90
2019-04-01T11:41:37.129Z,56.40
2019-04-01T11:43:58.373Z,55.20
2019-04-01T11:46:19.632Z,55.10
2019-04-01T11:48:40.841Z,54.30
2019-04-01T11:51:02.301Z,55.00
2019-04-01T11:53:23.556Z,54.60
2019-04-01T11:55:44.791Z,53.80
2019-04-01T11:58:06.086Z,53.80
2019-04-01T12:00:27.275Z,53.40
2019-04-01T12:02:48.499Z,52.90
2019-04-01T12:05:09.979Z,51.90
2019-04-01T12:07:31.295Z,52.70
2019-04-01T12:09:52.689Z,52.20
2019-04-01T12:12:23.540Z,51.90
2019-04-01T12:14:39.881Z,51.30
2019-04-01T12:17:02.945Z,51.70
2019-04-01T12:19:24.522Z,51.90
2019-04-01T12:21:45.893Z,52.50
2019-04-01T12:24:07.190Z,51.70
2019-04-01T12:26:28.391Z,51.80
2019-04-01T12:28:49.893Z,51.00
2019-04-01T12:31:13.020Z,51.00
2019-04-01T12:33:34.292Z,51.00
2019-04-01T12:35:56.689Z,50.80
2019-04-01T12:38:18.017Z,50.80
2019-04-01T12:40:39.249Z,49.80
2019-04-01T12:43:00.446Z,50.40
2019-04-01T12:45:22.546Z,50.50
2019-04-01T12:47:43.754Z,49.70
2019-04-01T12:50:05.153Z,50.20
2019-04-01T12:52:26.800Z,50.10
2019-04-01T12:54:48.024Z,50.30
2019-04-01T12:57:09.344Z,50.60
2019-04-01T12:59:30.532Z,49.80
2019-04-01T13:01:51.848Z,49.90
2019-04-01T13:04:13.029Z,50.10
2019-04-01T13:06:34.229Z,49.60
2019-04-01T13:08:55.796Z,49.70
2019-04-01T13:11:16.995Z,49.60
2019-04-01T13:13:38.218Z,48.30
2019-04-01T13:15:59.611Z,48.20
2019-04-01T13:18:20.818Z,48.00
2019-04-01T13:20:42.120Z,48.40
2019-04-01T13:23:03.709Z,48.30
2019-04-01T13:25:25.005Z,48.20
2019-04-01T13:27:46.223Z,48.20
2019-04-01T13:30:08.432Z,48.20
2019-04-01T13:32:29.661Z,48.30
2019-04-01T13:34:51.661Z,48.70
2019-04-01T13:37:12.847Z,48.00
2019-04-01T13:39:34.159Z,48.50
2019-04-01T13:41:56.289Z,47.70
2019-04-01T13:44:17.874Z,47.50
2019-04-01T13:46:39.068Z,47.40
2019-04-01T13:49:04.235Z,47.30
2019-04-01T13:51:23.403Z,47.70
2019-04-01T13:53:44.625Z,48.30
2019-04-01T13:56:05.935Z,47.40
2019-04-01T13:58:27.144Z,46.90
2019-04-01T14:00:48.357Z,47.50
2019-04-01T14:03:11.258Z,47.10
2019-04-01T14:05:32.669Z,47.00
2019-04-01T14:07:53.881Z,47.00
2019-04-01T14:10:15.337Z,46.70
2019-04-01T14:12:36.625Z,47.30
2019-04-01T14:14:57.853Z,47.20
2019-04-01T14:17:19.045Z,47.10
2019-04-01T14:19:40.369Z,47.20
2019-04-01T14:22:01.552Z,46.90
2019-04-01T14:24:22.782Z,47.20
2019-04-01T14:26:43.967Z,46.80
2019-04-01T14:29:06.075Z,46.80
2019-04-01T14:31:27.772Z,47.00
2019-04-01T14:33:48.977Z,46.90
2019-04-01T14:36:10.162Z,47.50
2019-04-01T14:38:31.367Z,46.80
2019-04-01T14:40:52.620Z,47.10
2019-04-01T14:43:13.900Z,46.50
2019-04-01T14:45:35.489Z,46.60
2019-04-01T14:47:58.095Z,47.00
2019-04-01T14:50:20.033Z,46.50
2019-04-01T14:52:41.467Z,46.40
2019-04-01T14:55:05.305Z,46.50
2019-04-01T14:57:26.526Z,46.70
2019-04-01T14:59:47.845Z,46.70
2019-04-01T15:02:09.451Z,46.90
2019-04-01T15:04:30.686Z,46.50
2019-04-01T15:06:51.887Z,46.30
2019-04-01T15:09:13.195Z,46.00
2019-04-01T15:11:34.515Z,46.40
2019-04-01T15:13:55.842Z,46.10
2019-04-01T15:16:17.048Z,46.40
2019-04-01T15:18:38.251Z,46.20
2019-04-01T15:20:59.466Z,46.40
2019-04-01T15:23:20.697Z,46.40
2019-04-01T15:25:41.977Z,46.50
2019-04-01T15:28:03.269Z,46.40
2019-04-01T15:30:24.479Z,46.00
2019-04-01T15:32:45.680Z,46.30
2019-04-01T15:35:07.591Z,46.40
2019-04-01T15:37:32.025Z,46.70
2019-04-01T15:39:51.935Z,46.30
2019-04-01T15:42:14.159Z,46.70
2019-04-01T15:44:35.622Z,47.00
2019-04-01T15:46:56.825Z,46.70
2019-04-01T15:49:18.048Z,46.70
2019-04-01T15:51:39.258Z,46.50
2019-04-01T15:54:01.557Z,46.50
2019-04-01T15:56:23.176Z,46.80
2019-04-01T15:58:44.390Z,46.80
2019-04-01T16:01:05.606Z,46.80
2019-04-01T16:03:27.079Z,46.60
2019-04-01T16:05:48.393Z,46.20
2019-04-01T16:08:10.685Z,46.20
2019-04-01T16:10:31.985Z,46.50
2019-04-01T16:12:53.265Z,46.70
2019-04-01T16:15:14.579Z,47.70
2019-04-01T16:17:35.772Z,46.90
2019-04-01T16:19:58.003Z,46.40
2019-04-01T16:22:19.670Z,46.30
2019-04-01T16:24:40.878Z,46.20
2019-04-01T16:27:02.065Z,46.20
2019-04-01T16:29:23.253Z,46.40
2019-04-01T16:31:44.474Z,46.20
2019-04-01T16:34:05.665Z,46.30
2019-04-01T16:36:26.938Z,46.60
2019-04-01T16:38:48.153Z,46.50
2019-04-01T16:41:09.353Z,46.80
2019-04-01T16:43:30.561Z,46.30
2019-04-01T16:45:51.999Z,46.20
2019-04-01T16:48:15.824Z,47.00
2019-04-01T16:50:37.132Z,46.30
2019-04-01T16:52:58.597Z,46.20
2019-04-01T16:55:20.211Z,46.50
2019-04-01T16:57:41.482Z,46.70
2019-04-01T17:00:07.439Z,46.70
2019-04-01T17:02:28.646Z,46.90
2019-04-01T17:04:51.133Z,46.80
2019-04-01T17:07:12.406Z,46.60
2019-04-01T17:09:33.634Z,46.90
2019-04-01T17:11:54.929Z,47.10
2019-04-01T17:14:16.334Z,47.00
2019-04-01T17:16:38.143Z,47.30
2019-04-01T17:18:59.484Z,47.60
2019-04-01T17:21:20.679Z,48.00
2019-04-01T17:23:42.167Z,47.80
2019-04-01T17:26:07.139Z,47.80
2019-04-01T17:28:28.598Z,48.00
2019-04-01T17:30:50.071Z,48.10
2019-04-01T17:33:11.263Z,48.30
2019-04-01T17:35:38.877Z,48.50
2019-04-01T17:38:10.935Z,48.60
2019-04-01T17:40:36.965Z,48.80
2019-04-01T17:42:58.552Z,49.00
2019-04-01T17:45:23.574Z,49.10
2019-04-01T17:47:46.023Z,49.00
2019-04-01T17:50:07.718Z,49.20
2019-04-01T17:52:28.945Z,49.70
2019-04-01T17:54:50.143Z,49.90
2019-04-01T17:57:11.353Z,50.00
2019-04-01T17:59:32.546Z,50.00
2019-04-01T18:01:56.872Z,50.20
2019-04-01T18:04:17.865Z,50.10
2019-04-01T18:06:39.085Z,50.30
2019-04-01T18:09:00.383Z,50.30
2019-04-01T18:11:21.638Z,50.50
2019-04-01T18:13:42.857Z,50.70
2019-04-01T18:16:04.047Z,50.90
2019-04-01T18:18:27.158Z,51.10
2019-04-01T18:20:48.437Z,51.20
2019-04-01T18:23:09.745Z,51.30
2019-04-01T18:25:31.435Z,51.80
2019-04-01T18:27:52.665Z,52.40
2019-04-01T18:30:15.253Z,53.00
2019-04-01T18:32:36.493Z,53.10
2019-04-01T18:34:57.761Z,53.40
2019-04-01T18:37:18.980Z,53.40
2019-04-01T18:39:47.982Z,53.50
2019-04-01T18:42:03.359Z,53.50
2019-04-01T18:44:26.099Z,53.70
2019-04-01T18:46:47.292Z,54.30
2019-04-01T18:49:08.495Z,54.80
2019-04-01T18:51:29.737Z,55.00
2019-04-01T18:53:50.953Z,55.10
2019-04-01T18:56:12.149Z,55.30
2019-04-01T18:58:33.365Z,55.30
2019-04-01T19:00:54.633Z,55.60
2019-04-01T19:03:15.857Z,56.50
2019-04-01T19:05:37.050Z,56.10
2019-04-01T19:07:58.264Z,56.30
2019-04-01T19:10:20.283Z,56.80
2019-04-01T19:12:41.602Z,57.40
2019-04-01T19:15:05.820Z,57.80
2019-04-01T19:17:27.209Z,58.10
2019-04-01T19:19:48.867Z,58.50
2019-04-01T19:22:10.489Z,58.50
2019-04-01T19:24:31.840Z,59.40
2019-04-01T19:26:57.010Z,59.50
2019-04-01T19:29:18.198Z,60.00
2019-04-01T19:31:41.137Z,60.10
2019-04-01T19:34:02.851Z,59.80
2019-04-01T19:36:24.069Z,59.70
2019-04-01T19:38:45.336Z,59.70
2019-04-01T19:41:06.551Z,59.40
2019-04-01T19:43:27.781Z,59.50
2019-04-01T19:45:50.684Z,59.10
2019-04-01T19:48:12.107Z,59.30
2019-04-01T19:50:33.294Z,59.20
2019-04-01T19:52:55.402Z,59.20
2019-04-01T19:55:19.072Z,59.00
2019-04-01T19:57:40.303Z,59.20
2019-04-01T20:00:04.398Z,59.40
2019-04-01T20:02:27.449Z,59.10
2019-04-01T20:04:49.321Z,59.00
2019-04-01T20:07:10.565Z,59.10
2019-04-01T20:09:31.878Z,59.20
2019-04-01T20:11:53.267Z,59.50
2019-04-01T20:14:14.469Z,59.80
2019-04-01T20:16:35.682Z,60.40
2019-04-01T20:18:57.090Z,61.10
2019-04-01T20:21:18.284Z,60.70
2019-04-01T20:23:39.497Z,60.00
2019-04-01T20:26:03.785Z,59.90
2019-04-01T20:28:25.180Z,60.10
2019-04-01T20:30:46.432Z,60.30
2019-04-01T20:33:17.564Z,60.70
2019-04-01T20:35:30.859Z,61.00
2019-04-01T20:37:52.201Z,61.40
2019-04-01T20:40:26.614Z,61.80
2019-04-01T20:42:52.073Z,62.60
2019-04-01T20:45:14.082Z,63.80
2019-04-01T20:47:36.021Z,64.50
2019-04-01T20:49:59.149Z,65.00
2019-04-01T20:52:21.466Z,66.80
2019-04-01T20:54:44.984Z,67.30
2019-04-01T20:57:06.478Z,67.60
2019-04-01T20:59:27.792Z,67.90
2019-04-01T21:01:49.015Z,68.00
2019-04-01T21:04:10.216Z,68.00
2019-04-01T21:06:33.458Z,68.40
2019-04-01T21:08:54.693Z,68.30
2019-04-01T21:11:16.109Z,69.40
2019-04-01T21:13:38.617Z,68.40
2019-04-01T21:15:59.828Z,68.40
2019-04-01T21:18:22.169Z,68.20
2019-04-01T21:20:43.362Z,68.40
2019-04-01T21:23:04.656Z,68.40
2019-04-01T21:25:26.109Z,67.60
2019-04-01T21:27:47.305Z,67.00
2019-04-01T21:30:09.121Z,66.50
2019-04-01T21:32:30.312Z,65.90
2019-04-01T21:34:51.520Z,65.70
2019-04-01T21:37:12.729Z,64.70
2019-04-01T21:39:34.033Z,64.10
2019-04-01T21:41:57.979Z,63.70
2019-04-01T21:44:19.193Z,63.70
2019-04-01T21:46:40.385Z,63.80
2019-04-01T21:49:01.614Z,64.60
2019-04-01T21:51:22.805Z,63.90
2019-04-01T21:53:44.944Z,64.10
2019-04-01T21:56:06.128Z,64.20
2019-04-01T21:58:27.321Z,64.30
2019-04-01T22:00:51.533Z,64.40
2019-04-01T22:03:13.413Z,64.70
2019-04-01T22:05:36.845Z,64.90
2019-04-01T22:07:58.042Z,64.90
2019-04-01T22:10:19.241Z,65.20
2019-04-01T22:12:44.129Z,65.50
2019-04-01T22:15:05.454Z,65.70
2019-04-01T22:17:26.645Z,65.90
2019-04-01T22:19:48.158Z,65.90
2019-04-01T22:22:09.398Z,65.90
2019-04-01T22:24:30.654Z,66.00
2019-04-01T22:26:51.831Z,65.90
2019-04-01T22:29:13.041Z,65.90
2019-04-01T22:31:34.234Z,66.10
2019-04-01T22:33:55.438Z,66.00
2019-04-01T22:36:16.625Z,66.10
2019-04-01T22:38:37.823Z,65.90
2019-04-01T22:41:00.093Z,65.80
2019-04-01T22:43:21.860Z,66.00
2019-04-01T22:45:43.159Z,66.00
2019-04-01T22:48:04.375Z,65.80
2019-04-01T22:50:25.577Z,66.60
2019-04-01T22:53:04.273Z,65.40
2019-04-01T22:55:28.104Z,65.70
2019-04-01T22:57:49.636Z,65.80
2019-04-01T23:00:11.984Z,66.00
2019-04-01T23:02:35.089Z,66.00
2019-04-01T23:05:14.693Z,65.90
2019-04-01T23:07:36.885Z,65.90
2019-04-01T23:09:58.503Z,66.00
2019-04-01T23:12:19.990Z,65.50
2019-04-01T23:14:43.260Z,65.40
2019-04-01T23:17:04.441Z,65.40
2019-04-01T23:19:46.727Z,65.20
2019-04-01T23:22:07.919Z,64.90
2019-04-01T23:24:29.136Z,65.10
2019-04-01T23:26:50.312Z,65.10
2019-04-01T23:29:11.496Z,65.00
2019-04-01T23:31:32.683Z,64.90
2019-04-01T23:34:13.195Z,65.00
2019-04-01T23:36:35.293Z,65.00
2019-04-01T23:38:56.499Z,64.80
2019-04-01T23:41:17.695Z,65.00
2019-04-01T23:43:38.875Z,65.20
2019-04-01T23:46:00.181Z,65.10
2019-04-01T23:48:21.436Z,65.00
2019-04-01T23:50:42.628Z,64.90
2019-04-01T23:53:03.817Z,64.90
2019-04-01T23:55:25.003Z,65.00
2019-04-01T23:57:46.201Z,65.20
